sensor_id;sensor_type;location;lat;lon;timestamp;P1;durP1;ratioP1;P2;durP2;ratioP2
78404;SDS011;67689;43.592;1.418;2023-03-08T00:01:02;21.88;;;10.73;;
78404;SDS011;67689;43.592;1.418;2023-03-08T00:03:33;20.23;;;10.98;;
78404;SDS011;67689;43.592;1.418;2023-03-08T00:06:02;22.35;;;10.43;;
78404;SDS011;67689;43.592;1.418;2023-03-08T00:08:28;18.52;;;10.35;;
78404;SDS011;67689;43.592;1.418;2023-03-08T00:10:54;20.02;;;11.15;;
78404;SDS011;67689;43.592;1.418;2023-03-08T00:13:19;19.67;;;10.32;;
78404;SDS011;67689;43.592;1.418;2023-03-08T00:15:44;18.70;;;10.40;;
78404;SDS011;67689;43.592;1.418;2023-03-08T00:18:10;19.25;;;10.10;;
78404;SDS011;67689;43.592;1.418;2023-03-08T00:20:35;18.80;;;10.00;;
78404;SDS011;67689;43.592;1.418;2023-03-08T00:23:00;18.33;;;9.70;;
78404;SDS011;67689;43.592;1.418;2023-03-08T00:25:26;19.13;;;9.88;;
78404;SDS011;67689;43.592;1.418;2023-03-08T00:27:52;16.65;;;8.98;;
78404;SDS011;67689;43.592;1.418;2023-03-08T00:30:17;18.27;;;9.25;;
78404;SDS011;67689;43.592;1.418;2023-03-08T00:32:42;16.55;;;8.77;;
78404;SDS011;67689;43.592;1.418;2023-03-08T00:35:08;15.15;;;8.63;;
78404;SDS011;67689;43.592;1.418;2023-03-08T00:37:33;15.75;;;8.20;;
78404;SDS011;67689;43.592;1.418;2023-03-08T00:39:59;14.80;;;7.95;;
78404;SDS011;67689;43.592;1.418;2023-03-08T00:42:24;15.27;;;7.85;;
78404;SDS011;67689;43.592;1.418;2023-03-08T00:44:49;13.80;;;7.18;;
78404;SDS011;67689;43.592;1.418;2023-03-08T00:47:15;15.52;;;8.32;;
78404;SDS011;67689;43.592;1.418;2023-03-08T00:49:41;13.82;;;7.68;;
78404;SDS011;67689;43.592;1.418;2023-03-08T00:52:06;15.60;;;8.27;;
78404;SDS011;67689;43.592;1.418;2023-03-08T00:54:32;16.95;;;8.45;;
78404;SDS011;67689;43.592;1.418;2023-03-08T00:56:57;16.83;;;8.30;;
78404;SDS011;67689;43.592;1.418;2023-03-08T00:59:23;15.82;;;8.30;;
78404;SDS011;67689;43.592;1.418;2023-03-08T01:01:48;16.13;;;8.85;;
78404;SDS011;67689;43.592;1.418;2023-03-08T01:04:13;14.15;;;8.20;;
78404;SDS011;67689;43.592;1.418;2023-03-08T01:06:39;16.23;;;8.40;;
78404;SDS011;67689;43.592;1.418;2023-03-08T01:09:07;15.65;;;8.30;;
78404;SDS011;67689;43.592;1.418;2023-03-08T01:11:33;16.95;;;8.40;;
78404;SDS011;67689;43.592;1.418;2023-03-08T01:14:00;15.40;;;8.25;;
78404;SDS011;67689;43.592;1.418;2023-03-08T01:16:27;14.93;;;7.78;;
78404;SDS011;67689;43.592;1.418;2023-03-08T01:18:55;14.48;;;7.55;;
78404;SDS011;67689;43.592;1.418;2023-03-08T01:21:21;14.88;;;8.18;;
78404;SDS011;67689;43.592;1.418;2023-03-08T01:23:47;16.23;;;8.07;;
78404;SDS011;67689;43.592;1.418;2023-03-08T01:26:13;17.10;;;8.77;;
78404;SDS011;67689;43.592;1.418;2023-03-08T01:28:40;16.85;;;8.73;;
78404;SDS011;67689;43.592;1.418;2023-03-08T01:31:16;17.50;;;9.07;;
78404;SDS011;67689;43.592;1.418;2023-03-08T01:33:45;16.45;;;8.88;;
78404;SDS011;67689;43.592;1.418;2023-03-08T01:36:12;16.35;;;8.52;;
78404;SDS011;67689;43.592;1.418;2023-03-08T01:38:39;16.63;;;8.75;;
78404;SDS011;67689;43.592;1.418;2023-03-08T01:41:05;17.38;;;9.00;;
78404;SDS011;67689;43.592;1.418;2023-03-08T01:43:33;16.85;;;9.15;;
78404;SDS011;67689;43.592;1.418;2023-03-08T01:48:50;19.23;;;9.40;;
78404;SDS011;67689;43.592;1.418;2023-03-08T01:54:08;16.33;;;8.85;;
78404;SDS011;67689;43.592;1.418;2023-03-08T01:56:36;17.50;;;9.40;;
78404;SDS011;67689;43.592;1.418;2023-03-08T01:59:04;18.25;;;9.63;;
78404;SDS011;67689;43.592;1.418;2023-03-08T02:01:31;19.02;;;9.93;;
78404;SDS011;67689;43.592;1.418;2023-03-08T02:03:58;19.70;;;9.48;;
78404;SDS011;67689;43.592;1.418;2023-03-08T02:06:23;19.65;;;9.88;;
78404;SDS011;67689;43.592;1.418;2023-03-08T02:08:48;21.15;;;10.55;;
78404;SDS011;67689;43.592;1.418;2023-03-08T02:11:14;17.60;;;9.80;;
78404;SDS011;67689;43.592;1.418;2023-03-08T02:13:41;19.70;;;10.15;;
78404;SDS011;67689;43.592;1.418;2023-03-08T02:16:08;20.42;;;10.20;;
78404;SDS011;67689;43.592;1.418;2023-03-08T02:18:35;17.17;;;9.27;;
78404;SDS011;67689;43.592;1.418;2023-03-08T02:21:00;22.15;;;10.70;;
78404;SDS011;67689;43.592;1.418;2023-03-08T02:23:26;19.00;;;9.77;;
78404;SDS011;67689;43.592;1.418;2023-03-08T02:25:52;17.73;;;9.52;;
78404;SDS011;67689;43.592;1.418;2023-03-08T02:28:20;18.98;;;9.95;;
78404;SDS011;67689;43.592;1.418;2023-03-08T02:30:46;18.88;;;9.68;;
78404;SDS011;67689;43.592;1.418;2023-03-08T02:33:12;18.25;;;10.13;;
78404;SDS011;67689;43.592;1.418;2023-03-08T02:35:37;16.65;;;9.07;;
78404;SDS011;67689;43.592;1.418;2023-03-08T02:38:06;18.33;;;10.10;;
78404;SDS011;67689;43.592;1.418;2023-03-08T02:40:32;20.73;;;10.82;;
78404;SDS011;67689;43.592;1.418;2023-03-08T02:42:57;21.98;;;10.50;;
78404;SDS011;67689;43.592;1.418;2023-03-08T02:45:22;18.92;;;10.02;;
78404;SDS011;67689;43.592;1.418;2023-03-08T02:47:48;19.17;;;9.73;;
78404;SDS011;67689;43.592;1.418;2023-03-08T02:50:13;17.60;;;9.35;;
78404;SDS011;67689;43.592;1.418;2023-03-08T02:52:39;18.55;;;9.55;;
78404;SDS011;67689;43.592;1.418;2023-03-08T02:55:04;21.63;;;10.60;;
78404;SDS011;67689;43.592;1.418;2023-03-08T02:57:30;20.05;;;10.27;;
78404;SDS011;67689;43.592;1.418;2023-03-08T02:59:55;22.27;;;10.77;;
78404;SDS011;67689;43.592;1.418;2023-03-08T03:02:21;18.98;;;10.13;;
78404;SDS011;67689;43.592;1.418;2023-03-08T03:04:46;19.02;;;9.90;;
78404;SDS011;67689;43.592;1.418;2023-03-08T03:07:11;18.05;;;9.40;;
78404;SDS011;67689;43.592;1.418;2023-03-08T03:09:37;20.58;;;10.65;;
78404;SDS011;67689;43.592;1.418;2023-03-08T03:12:02;17.90;;;9.48;;
78404;SDS011;67689;43.592;1.418;2023-03-08T03:14:28;21.08;;;9.60;;
78404;SDS011;67689;43.592;1.418;2023-03-08T03:16:53;19.52;;;10.27;;
78404;SDS011;67689;43.592;1.418;2023-03-08T03:19:19;16.85;;;9.40;;
78404;SDS011;67689;43.592;1.418;2023-03-08T03:21:44;19.95;;;10.77;;
78404;SDS011;67689;43.592;1.418;2023-03-08T03:24:10;18.45;;;10.10;;
78404;SDS011;67689;43.592;1.418;2023-03-08T03:26:35;17.33;;;9.52;;
78404;SDS011;67689;43.592;1.418;2023-03-08T03:29:00;18.17;;;10.38;;
78404;SDS011;67689;43.592;1.418;2023-03-08T03:31:26;19.25;;;10.25;;
78404;SDS011;67689;43.592;1.418;2023-03-08T03:33:51;18.40;;;9.57;;
78404;SDS011;67689;43.592;1.418;2023-03-08T03:36:20;19.42;;;9.65;;
78404;SDS011;67689;43.592;1.418;2023-03-08T03:38:46;18.52;;;9.98;;
78404;SDS011;67689;43.592;1.418;2023-03-08T03:41:13;20.00;;;9.85;;
78404;SDS011;67689;43.592;1.418;2023-03-08T03:43:40;19.10;;;9.90;;
78404;SDS011;67689;43.592;1.418;2023-03-08T03:46:07;17.83;;;9.70;;
78404;SDS011;67689;43.592;1.418;2023-03-08T03:48:34;22.13;;;9.18;;
78404;SDS011;67689;43.592;1.418;2023-03-08T03:51:01;16.48;;;9.40;;
78404;SDS011;67689;43.592;1.418;2023-03-08T03:53:28;17.48;;;9.27;;
78404;SDS011;67689;43.592;1.418;2023-03-08T03:55:54;17.77;;;9.10;;
78404;SDS011;67689;43.592;1.418;2023-03-08T03:58:26;18.05;;;9.43;;
78404;SDS011;67689;43.592;1.418;2023-03-08T04:00:51;15.90;;;8.93;;
78404;SDS011;67689;43.592;1.418;2023-03-08T04:03:16;17.52;;;9.30;;
78404;SDS011;67689;43.592;1.418;2023-03-08T04:05:42;18.88;;;10.18;;
78404;SDS011;67689;43.592;1.418;2023-03-08T04:08:07;18.02;;;9.40;;
78404;SDS011;67689;43.592;1.418;2023-03-08T04:10:33;19.45;;;9.95;;
78404;SDS011;67689;43.592;1.418;2023-03-08T04:12:58;19.25;;;10.32;;
78404;SDS011;67689;43.592;1.418;2023-03-08T04:15:24;17.90;;;9.93;;
78404;SDS011;67689;43.592;1.418;2023-03-08T04:17:50;19.83;;;10.70;;
78404;SDS011;67689;43.592;1.418;2023-03-08T04:20:16;20.17;;;10.90;;
78404;SDS011;67689;43.592;1.418;2023-03-08T04:22:41;22.10;;;11.18;;
78404;SDS011;67689;43.592;1.418;2023-03-08T04:25:07;19.33;;;10.77;;
78404;SDS011;67689;43.592;1.418;2023-03-08T04:27:33;20.63;;;11.20;;
78404;SDS011;67689;43.592;1.418;2023-03-08T04:29:58;17.42;;;10.35;;
78404;SDS011;67689;43.592;1.418;2023-03-08T04:32:23;20.15;;;10.68;;
78404;SDS011;67689;43.592;1.418;2023-03-08T04:34:49;19.70;;;10.73;;
78404;SDS011;67689;43.592;1.418;2023-03-08T04:37:14;19.40;;;10.95;;
78404;SDS011;67689;43.592;1.418;2023-03-08T04:39:39;20.60;;;11.35;;
78404;SDS011;67689;43.592;1.418;2023-03-08T04:42:05;32.13;;;16.38;;
78404;SDS011;67689;43.592;1.418;2023-03-08T04:44:30;18.98;;;10.32;;
78404;SDS011;67689;43.592;1.418;2023-03-08T04:46:56;20.17;;;10.48;;
78404;SDS011;67689;43.592;1.418;2023-03-08T04:49:22;19.75;;;9.93;;
78404;SDS011;67689;43.592;1.418;2023-03-08T04:51:47;17.80;;;10.20;;
78404;SDS011;67689;43.592;1.418;2023-03-08T04:54:13;19.42;;;10.57;;
78404;SDS011;67689;43.592;1.418;2023-03-08T04:56:38;19.70;;;10.82;;
78404;SDS011;67689;43.592;1.418;2023-03-08T04:59:03;20.75;;;10.38;;
78404;SDS011;67689;43.592;1.418;2023-03-08T05:01:29;17.63;;;10.30;;
78404;SDS011;67689;43.592;1.418;2023-03-08T05:03:54;19.95;;;10.13;;
78404;SDS011;67689;43.592;1.418;2023-03-08T05:06:20;18.13;;;9.98;;
78404;SDS011;67689;43.592;1.418;2023-03-08T05:08:47;17.42;;;9.45;;
78404;SDS011;67689;43.592;1.418;2023-03-08T05:11:20;17.70;;;9.93;;
78404;SDS011;67689;43.592;1.418;2023-03-08T05:13:55;17.38;;;9.02;;
78404;SDS011;67689;43.592;1.418;2023-03-08T05:16:22;23.73;;;10.23;;
78404;SDS011;67689;43.592;1.418;2023-03-08T05:18:49;19.40;;;10.15;;
78404;SDS011;67689;43.592;1.418;2023-03-08T05:21:15;18.38;;;10.00;;
78404;SDS011;67689;43.592;1.418;2023-03-08T05:23:42;21.77;;;11.02;;
78404;SDS011;67689;43.592;1.418;2023-03-08T05:26:09;18.02;;;10.45;;
78404;SDS011;67689;43.592;1.418;2023-03-08T05:28:35;24.70;;;12.10;;
78404;SDS011;67689;43.592;1.418;2023-03-08T05:31:06;21.00;;;11.13;;
78404;SDS011;67689;43.592;1.418;2023-03-08T05:33:33;18.50;;;10.38;;
78404;SDS011;67689;43.592;1.418;2023-03-08T05:35:59;18.00;;;10.10;;
78404;SDS011;67689;43.592;1.418;2023-03-08T05:38:24;19.25;;;10.45;;
78404;SDS011;67689;43.592;1.418;2023-03-08T05:40:51;17.58;;;9.73;;
78404;SDS011;67689;43.592;1.418;2023-03-08T05:43:17;18.15;;;9.60;;
78404;SDS011;67689;43.592;1.418;2023-03-08T05:45:42;18.55;;;9.63;;
78404;SDS011;67689;43.592;1.418;2023-03-08T05:48:08;19.48;;;9.98;;
78404;SDS011;67689;43.592;1.418;2023-03-08T05:50:35;17.33;;;9.80;;
78404;SDS011;67689;43.592;1.418;2023-03-08T05:53:02;18.73;;;10.07;;
78404;SDS011;67689;43.592;1.418;2023-03-08T05:55:28;18.20;;;10.35;;
78404;SDS011;67689;43.592;1.418;2023-03-08T05:57:53;20.90;;;11.40;;
78404;SDS011;67689;43.592;1.418;2023-03-08T06:00:18;21.65;;;12.02;;
78404;SDS011;67689;43.592;1.418;2023-03-08T06:02:44;19.13;;;11.57;;
78404;SDS011;67689;43.592;1.418;2023-03-08T06:05:09;19.75;;;11.52;;
78404;SDS011;67689;43.592;1.418;2023-03-08T06:07:35;18.27;;;10.35;;
78404;SDS011;67689;43.592;1.418;2023-03-08T06:10:00;20.52;;;11.98;;
78404;SDS011;67689;43.592;1.418;2023-03-08T06:12:26;18.40;;;9.80;;
78404;SDS011;67689;43.592;1.418;2023-03-08T06:14:51;17.63;;;9.77;;
78404;SDS011;67689;43.592;1.418;2023-03-08T06:17:17;17.00;;;9.35;;
78404;SDS011;67689;43.592;1.418;2023-03-08T06:19:42;17.55;;;9.68;;
78404;SDS011;67689;43.592;1.418;2023-03-08T06:22:07;17.02;;;9.98;;
78404;SDS011;67689;43.592;1.418;2023-03-08T06:24:33;20.05;;;10.32;;
78404;SDS011;67689;43.592;1.418;2023-03-08T06:26:58;20.02;;;10.82;;
78404;SDS011;67689;43.592;1.418;2023-03-08T06:29:24;18.67;;;9.82;;
78404;SDS011;67689;43.592;1.418;2023-03-08T06:31:49;16.90;;;8.73;;
78404;SDS011;67689;43.592;1.418;2023-03-08T06:34:14;14.88;;;8.65;;
78404;SDS011;67689;43.592;1.418;2023-03-08T06:36:40;16.48;;;8.50;;
78404;SDS011;67689;43.592;1.418;2023-03-08T06:39:05;17.75;;;8.50;;
78404;SDS011;67689;43.592;1.418;2023-03-08T06:41:31;13.48;;;7.65;;
78404;SDS011;67689;43.592;1.418;2023-03-08T06:43:56;14.68;;;7.80;;
78404;SDS011;67689;43.592;1.418;2023-03-08T06:46:22;13.60;;;7.28;;
78404;SDS011;67689;43.592;1.418;2023-03-08T06:48:48;14.65;;;7.15;;
78404;SDS011;67689;43.592;1.418;2023-03-08T06:51:13;14.65;;;7.53;;
78404;SDS011;67689;43.592;1.418;2023-03-08T06:53:39;15.02;;;7.82;;
78404;SDS011;67689;43.592;1.418;2023-03-08T06:56:05;13.98;;;7.20;;
78404;SDS011;67689;43.592;1.418;2023-03-08T06:58:32;14.95;;;7.50;;
78404;SDS011;67689;43.592;1.418;2023-03-08T07:00:58;13.02;;;6.53;;
78404;SDS011;67689;43.592;1.418;2023-03-08T07:03:24;15.05;;;7.13;;
78404;SDS011;67689;43.592;1.418;2023-03-08T07:05:49;14.60;;;6.53;;
78404;SDS011;67689;43.592;1.418;2023-03-08T07:08:15;14.98;;;6.45;;
78404;SDS011;67689;43.592;1.418;2023-03-08T07:10:40;13.32;;;6.80;;
78404;SDS011;67689;43.592;1.418;2023-03-08T07:13:06;12.80;;;7.32;;
78404;SDS011;67689;43.592;1.418;2023-03-08T07:15:31;13.07;;;7.10;;
78404;SDS011;67689;43.592;1.418;2023-03-08T07:17:56;14.30;;;7.32;;
78404;SDS011;67689;43.592;1.418;2023-03-08T07:20:23;17.27;;;9.07;;
78404;SDS011;67689;43.592;1.418;2023-03-08T07:22:49;13.77;;;6.90;;
78404;SDS011;67689;43.592;1.418;2023-03-08T07:25:16;15.15;;;7.15;;
78404;SDS011;67689;43.592;1.418;2023-03-08T07:27:42;11.68;;;6.35;;
78404;SDS011;67689;43.592;1.418;2023-03-08T07:30:08;16.85;;;6.95;;
78404;SDS011;67689;43.592;1.418;2023-03-08T07:32:37;17.42;;;7.90;;
78404;SDS011;67689;43.592;1.418;2023-03-08T07:35:04;13.93;;;7.20;;
78404;SDS011;67689;43.592;1.418;2023-03-08T07:37:31;12.57;;;6.15;;
78404;SDS011;67689;43.592;1.418;2023-03-08T07:39:56;15.35;;;7.07;;
78404;SDS011;67689;43.592;1.418;2023-03-08T07:42:22;11.75;;;6.13;;
78404;SDS011;67689;43.592;1.418;2023-03-08T07:44:47;13.35;;;5.90;;
78404;SDS011;67689;43.592;1.418;2023-03-08T07:47:13;10.65;;;5.55;;
78404;SDS011;67689;43.592;1.418;2023-03-08T07:49:38;10.43;;;5.25;;
78404;SDS011;67689;43.592;1.418;2023-03-08T07:52:04;13.30;;;5.47;;
78404;SDS011;67689;43.592;1.418;2023-03-08T07:54:29;9.20;;;5.15;;
78404;SDS011;67689;43.592;1.418;2023-03-08T07:56:55;9.20;;;3.95;;
78404;SDS011;67689;43.592;1.418;2023-03-08T07:59:21;11.10;;;4.50;;
78404;SDS011;67689;43.592;1.418;2023-03-08T08:01:47;9.50;;;4.32;;
78404;SDS011;67689;43.592;1.418;2023-03-08T08:04:12;11.38;;;4.60;;
78404;SDS011;67689;43.592;1.418;2023-03-08T08:06:38;10.70;;;4.72;;
78404;SDS011;67689;43.592;1.418;2023-03-08T08:09:04;9.70;;;4.18;;
78404;SDS011;67689;43.592;1.418;2023-03-08T08:11:31;8.90;;;3.90;;
78404;SDS011;67689;43.592;1.418;2023-03-08T08:13:56;8.93;;;4.10;;
78404;SDS011;67689;43.592;1.418;2023-03-08T08:16:22;8.13;;;4.03;;
78404;SDS011;67689;43.592;1.418;2023-03-08T08:18:47;10.13;;;4.07;;
78404;SDS011;67689;43.592;1.418;2023-03-08T08:21:15;7.43;;;3.78;;
78404;SDS011;67689;43.592;1.418;2023-03-08T08:23:41;8.93;;;3.25;;
78404;SDS011;67689;43.592;1.418;2023-03-08T08:26:08;8.30;;;2.92;;
78404;SDS011;67689;43.592;1.418;2023-03-08T08:28:38;7.68;;;3.08;;
78404;SDS011;67689;43.592;1.418;2023-03-08T08:31:05;8.07;;;2.95;;
78404;SDS011;67689;43.592;1.418;2023-03-08T08:33:34;7.78;;;2.90;;
78404;SDS011;67689;43.592;1.418;2023-03-08T08:36:02;6.88;;;2.95;;
78404;SDS011;67689;43.592;1.418;2023-03-08T08:38:29;6.28;;;3.10;;
78404;SDS011;67689;43.592;1.418;2023-03-08T08:40:57;5.90;;;2.75;;
78404;SDS011;67689;43.592;1.418;2023-03-08T08:43:28;7.15;;;3.40;;
78404;SDS011;67689;43.592;1.418;2023-03-08T08:45:54;6.95;;;3.03;;
78404;SDS011;67689;43.592;1.418;2023-03-08T08:48:20;7.43;;;3.63;;
78404;SDS011;67689;43.592;1.418;2023-03-08T08:50:46;7.03;;;3.28;;
78404;SDS011;67689;43.592;1.418;2023-03-08T08:53:12;10.38;;;3.17;;
78404;SDS011;67689;43.592;1.418;2023-03-08T08:55:37;7.78;;;3.58;;
78404;SDS011;67689;43.592;1.418;2023-03-08T08:58:03;6.78;;;3.40;;
78404;SDS011;67689;43.592;1.418;2023-03-08T09:00:29;8.35;;;3.53;;
78404;SDS011;67689;43.592;1.418;2023-03-08T09:02:55;8.27;;;3.13;;
78404;SDS011;67689;43.592;1.418;2023-03-08T09:05:20;8.10;;;3.42;;
78404;SDS011;67689;43.592;1.418;2023-03-08T09:07:46;8.23;;;3.25;;
78404;SDS011;67689;43.592;1.418;2023-03-08T09:10:11;6.80;;;2.95;;
78404;SDS011;67689;43.592;1.418;2023-03-08T09:12:36;8.02;;;2.83;;
78404;SDS011;67689;43.592;1.418;2023-03-08T09:15:02;8.88;;;2.83;;
78404;SDS011;67689;43.592;1.418;2023-03-08T09:17:28;7.38;;;2.88;;
78404;SDS011;67689;43.592;1.418;2023-03-08T09:19:54;7.38;;;3.25;;
78404;SDS011;67689;43.592;1.418;2023-03-08T09:22:20;13.27;;;3.33;;
78404;SDS011;67689;43.592;1.418;2023-03-08T09:24:47;7.55;;;3.35;;
78404;SDS011;67689;43.592;1.418;2023-03-08T09:27:13;8.55;;;3.83;;
78404;SDS011;67689;43.592;1.418;2023-03-08T09:29:38;7.72;;;3.55;;
78404;SDS011;67689;43.592;1.418;2023-03-08T09:32:04;7.68;;;3.40;;
78404;SDS011;67689;43.592;1.418;2023-03-08T09:34:30;9.10;;;3.75;;
78404;SDS011;67689;43.592;1.418;2023-03-08T09:36:55;7.97;;;3.70;;
78404;SDS011;67689;43.592;1.418;2023-03-08T09:39:21;8.05;;;3.63;;
78404;SDS011;67689;43.592;1.418;2023-03-08T09:41:52;7.43;;;3.40;;
78404;SDS011;67689;43.592;1.418;2023-03-08T09:47:52;8.95;;;3.50;;
78404;SDS011;67689;43.592;1.418;2023-03-08T09:55:02;6.47;;;3.00;;
78404;SDS011;67689;43.592;1.418;2023-03-08T09:57:34;9.07;;;3.30;;
78404;SDS011;67689;43.592;1.418;2023-03-08T10:00:02;8.25;;;3.30;;
78404;SDS011;67689;43.592;1.418;2023-03-08T10:15:52;7.75;;;3.17;;
78404;SDS011;67689;43.592;1.418;2023-03-08T10:18:27;6.97;;;2.97;;
78404;SDS011;67689;43.592;1.418;2023-03-08T10:20:55;7.82;;;3.35;;
78404;SDS011;67689;43.592;1.418;2023-03-08T10:23:22;9.48;;;3.45;;
78404;SDS011;67689;43.592;1.418;2023-03-08T10:25:50;6.05;;;2.78;;
78404;SDS011;67689;43.592;1.418;2023-03-08T10:28:19;9.30;;;3.45;;
78404;SDS011;67689;43.592;1.418;2023-03-08T10:30:46;9.32;;;3.20;;
78404;SDS011;67689;43.592;1.418;2023-03-08T10:33:14;8.77;;;3.00;;
78404;SDS011;67689;43.592;1.418;2023-03-08T10:36:01;7.85;;;3.40;;
78404;SDS011;67689;43.592;1.418;2023-03-08T10:38:34;10.57;;;3.85;;
78404;SDS011;67689;43.592;1.418;2023-03-08T10:41:16;10.02;;;3.80;;
78404;SDS011;67689;43.592;1.418;2023-03-08T10:43:45;9.25;;;3.67;;
78404;SDS011;67689;43.592;1.418;2023-03-08T10:46:14;7.35;;;3.60;;
78404;SDS011;67689;43.592;1.418;2023-03-08T10:48:46;8.10;;;3.50;;
78404;SDS011;67689;43.592;1.418;2023-03-08T10:51:20;9.10;;;3.90;;
78404;SDS011;67689;43.592;1.418;2023-03-08T10:53:54;7.82;;;3.30;;
78404;SDS011;67689;43.592;1.418;2023-03-08T10:59:02;10.48;;;3.55;;
78404;SDS011;67689;43.592;1.418;2023-03-08T11:04:04;8.23;;;3.65;;
78404;SDS011;67689;43.592;1.418;2023-03-08T11:06:40;7.38;;;3.60;;
78404;SDS011;67689;43.592;1.418;2023-03-08T11:12:00;8.80;;;3.72;;
78404;SDS011;67689;43.592;1.418;2023-03-08T11:14:26;9.02;;;3.60;;
78404;SDS011;67689;43.592;1.418;2023-03-08T11:16:55;8.27;;;3.85;;
78404;SDS011;67689;43.592;1.418;2023-03-08T11:22:19;9.23;;;3.95;;
78404;SDS011;67689;43.592;1.418;2023-03-08T11:27:24;8.20;;;4.15;;
78404;SDS011;67689;43.592;1.418;2023-03-08T11:30:05;9.43;;;4.40;;
78404;SDS011;67689;43.592;1.418;2023-03-08T11:45:56;9.10;;;3.97;;
78404;SDS011;67689;43.592;1.418;2023-03-08T11:48:30;8.60;;;3.90;;
78404;SDS011;67689;43.592;1.418;2023-03-08T11:51:07;7.82;;;3.80;;
78404;SDS011;67689;43.592;1.418;2023-03-08T11:53:38;9.77;;;3.63;;
78404;SDS011;67689;43.592;1.418;2023-03-08T11:59:09;14.88;;;6.85;;
78404;SDS011;67689;43.592;1.418;2023-03-08T12:01:52;7.00;;;3.13;;
78404;SDS011;67689;43.592;1.418;2023-03-08T12:04:25;8.32;;;3.15;;
78404;SDS011;67689;43.592;1.418;2023-03-08T12:07:20;8.45;;;3.28;;
78404;SDS011;67689;43.592;1.418;2023-03-08T12:09:51;8.13;;;3.30;;
78404;SDS011;67689;43.592;1.418;2023-03-08T12:12:29;9.55;;;4.13;;
78404;SDS011;67689;43.592;1.418;2023-03-08T12:14:59;11.77;;;4.30;;
78404;SDS011;67689;43.592;1.418;2023-03-08T12:17:33;7.70;;;3.60;;
78404;SDS011;67689;43.592;1.418;2023-03-08T12:19:59;8.98;;;3.88;;
78404;SDS011;67689;43.592;1.418;2023-03-08T12:22:31;8.90;;;4.05;;
78404;SDS011;67689;43.592;1.418;2023-03-08T12:32:26;10.23;;;4.35;;
78404;SDS011;67689;43.592;1.418;2023-03-08T12:35:05;9.70;;;4.13;;
78404;SDS011;67689;43.592;1.418;2023-03-08T12:38:02;10.85;;;4.43;;
78404;SDS011;67689;43.592;1.418;2023-03-08T12:40:33;10.70;;;4.15;;
78404;SDS011;67689;43.592;1.418;2023-03-08T12:43:10;12.05;;;4.80;;
78404;SDS011;67689;43.592;1.418;2023-03-08T12:45:46;11.07;;;5.00;;
78404;SDS011;67689;43.592;1.418;2023-03-08T12:48:30;12.02;;;5.40;;
78404;SDS011;67689;43.592;1.418;2023-03-08T12:58:30;12.07;;;4.57;;
78404;SDS011;67689;43.592;1.418;2023-03-08T13:00:57;13.23;;;4.97;;
78404;SDS011;67689;43.592;1.418;2023-03-08T13:03:45;9.82;;;4.35;;
78404;SDS011;67689;43.592;1.418;2023-03-08T13:08:52;7.82;;;4.70;;
78404;SDS011;67689;43.592;1.418;2023-03-08T13:11:20;11.27;;;5.10;;
78404;SDS011;67689;43.592;1.418;2023-03-08T13:19:02;10.32;;;4.47;;
78404;SDS011;67689;43.592;1.418;2023-03-08T13:21:31;11.98;;;5.13;;
78404;SDS011;67689;43.592;1.418;2023-03-08T13:29:32;15.95;;;7.72;;
78404;SDS011;67689;43.592;1.418;2023-03-08T13:32:03;12.15;;;6.22;;
78404;SDS011;67689;43.592;1.418;2023-03-08T13:34:30;10.82;;;4.75;;
78404;SDS011;67689;43.592;1.418;2023-03-08T13:36:57;8.50;;;3.90;;
78404;SDS011;67689;43.592;1.418;2023-03-08T13:39:27;9.70;;;3.60;;
78404;SDS011;67689;43.592;1.418;2023-03-08T13:42:04;10.27;;;3.80;;
78404;SDS011;67689;43.592;1.418;2023-03-08T13:44:30;8.48;;;3.67;;
78404;SDS011;67689;43.592;1.418;2023-03-08T13:46:56;8.85;;;3.35;;
78404;SDS011;67689;43.592;1.418;2023-03-08T13:49:25;8.98;;;3.47;;
78404;SDS011;67689;43.592;1.418;2023-03-08T13:51:59;7.70;;;3.15;;
78404;SDS011;67689;43.592;1.418;2023-03-08T13:54:26;7.65;;;3.25;;
78404;SDS011;67689;43.592;1.418;2023-03-08T13:56:55;12.32;;;6.13;;
78404;SDS011;67689;43.592;1.418;2023-03-08T13:59:21;12.32;;;4.28;;
78404;SDS011;67689;43.592;1.418;2023-03-08T14:01:48;8.07;;;3.15;;
78404;SDS011;67689;43.592;1.418;2023-03-08T14:04:25;8.27;;;2.92;;
78404;SDS011;67689;43.592;1.418;2023-03-08T14:06:59;7.45;;;2.70;;
78404;SDS011;67689;43.592;1.418;2023-03-08T14:09:25;8.60;;;2.90;;
78404;SDS011;67689;43.592;1.418;2023-03-08T14:11:52;7.90;;;3.08;;
78404;SDS011;67689;43.592;1.418;2023-03-08T14:14:22;15.75;;;3.15;;
78404;SDS011;67689;43.592;1.418;2023-03-08T14:16:51;10.90;;;2.70;;
78404;SDS011;67689;43.592;1.418;2023-03-08T14:19:24;8.05;;;2.95;;
78404;SDS011;67689;43.592;1.418;2023-03-08T14:21:53;7.88;;;2.55;;
78404;SDS011;67689;43.592;1.418;2023-03-08T14:24:22;5.35;;;2.30;;
78404;SDS011;67689;43.592;1.418;2023-03-08T14:26:53;6.28;;;1.70;;
78404;SDS011;67689;43.592;1.418;2023-03-08T14:34:32;7.18;;;2.33;;
78404;SDS011;67689;43.592;1.418;2023-03-08T14:37:01;9.83;;;2.40;;
78404;SDS011;67689;43.592;1.418;2023-03-08T14:39:29;7.65;;;2.20;;
78404;SDS011;67689;43.592;1.418;2023-03-08T14:41:56;9.23;;;2.35;;
78404;SDS011;67689;43.592;1.418;2023-03-08T14:44:24;8.45;;;2.08;;
78404;SDS011;67689;43.592;1.418;2023-03-08T14:46:51;8.25;;;2.67;;
78404;SDS011;67689;43.592;1.418;2023-03-08T14:49:23;6.65;;;2.67;;
78404;SDS011;67689;43.592;1.418;2023-03-08T14:51:51;14.32;;;3.08;;
78404;SDS011;67689;43.592;1.418;2023-03-08T14:54:28;9.05;;;3.28;;
78404;SDS011;67689;43.592;1.418;2023-03-08T14:57:03;8.38;;;3.08;;
78404;SDS011;67689;43.592;1.418;2023-03-08T14:59:39;7.63;;;3.30;;
78404;SDS011;67689;43.592;1.418;2023-03-08T15:02:08;12.90;;;6.00;;
78404;SDS011;67689;43.592;1.418;2023-03-08T15:04:35;9.90;;;5.20;;
78404;SDS011;67689;43.592;1.418;2023-03-08T15:07:01;9.88;;;3.88;;
78404;SDS011;67689;43.592;1.418;2023-03-08T15:09:27;8.65;;;3.80;;
78404;SDS011;67689;43.592;1.418;2023-03-08T15:11:54;7.80;;;3.63;;
78404;SDS011;67689;43.592;1.418;2023-03-08T15:14:23;6.70;;;3.30;;
78404;SDS011;67689;43.592;1.418;2023-03-08T15:16:49;7.40;;;3.20;;
78404;SDS011;67689;43.592;1.418;2023-03-08T15:19:15;8.07;;;3.00;;
78404;SDS011;67689;43.592;1.418;2023-03-08T15:21:40;7.63;;;3.00;;
78404;SDS011;67689;43.592;1.418;2023-03-08T15:24:06;7.35;;;3.17;;
78404;SDS011;67689;43.592;1.418;2023-03-08T15:26:38;7.82;;;3.20;;
78404;SDS011;67689;43.592;1.418;2023-03-08T15:29:04;6.68;;;3.13;;
78404;SDS011;67689;43.592;1.418;2023-03-08T15:31:30;7.43;;;3.15;;
78404;SDS011;67689;43.592;1.418;2023-03-08T15:33:56;7.60;;;2.88;;
78404;SDS011;67689;43.592;1.418;2023-03-08T15:36:21;8.80;;;3.17;;
78404;SDS011;67689;43.592;1.418;2023-03-08T15:38:47;12.00;;;4.50;;
78404;SDS011;67689;43.592;1.418;2023-03-08T15:41:14;12.93;;;6.97;;
78404;SDS011;67689;43.592;1.418;2023-03-08T15:43:40;10.35;;;5.22;;
78404;SDS011;67689;43.592;1.418;2023-03-08T15:46:05;8.77;;;3.53;;
78404;SDS011;67689;43.592;1.418;2023-03-08T15:48:31;7.18;;;3.35;;
78404;SDS011;67689;43.592;1.418;2023-03-08T15:50:56;7.63;;;3.40;;
78404;SDS011;67689;43.592;1.418;2023-03-08T15:53:22;9.48;;;3.55;;
78404;SDS011;67689;43.592;1.418;2023-03-08T15:55:48;10.45;;;3.40;;
78404;SDS011;67689;43.592;1.418;2023-03-08T15:58:13;9.23;;;3.53;;
78404;SDS011;67689;43.592;1.418;2023-03-08T16:00:38;7.05;;;3.00;;
78404;SDS011;67689;43.592;1.418;2023-03-08T16:03:04;7.55;;;2.92;;
78404;SDS011;67689;43.592;1.418;2023-03-08T16:05:29;8.50;;;3.20;;
78404;SDS011;67689;43.592;1.418;2023-03-08T16:07:59;8.25;;;2.80;;